createdAt,value
2023-10-21T00:01:24.844Z,6.05
2023-10-21T00:05:42.175Z,6.10
2023-10-21T00:10:00.522Z,6.43
2023-10-21T00:14:18.802Z,7.25
2023-10-21T00:18:36.263Z,7.65
2023-10-21T00:22:53.612Z,8.52
2023-10-21T00:27:11.424Z,7.25
2023-10-21T00:31:29.395Z,6.95
2023-10-21T00:35:47.043Z,7.30
2023-10-21T00:40:04.972Z,6.68
2023-10-21T00:44:22.235Z,6.47
2023-10-21T00:48:40.537Z,6.43
2023-10-21T00:52:58.930Z,6.88
2023-10-21T00:57:16.510Z,7.13
2023-10-21T01:01:36.215Z,8.52
2023-10-21T01:05:53.738Z,8.07
2023-10-21T01:10:13.019Z,8.75
2023-10-21T01:14:30.434Z,8.27
2023-10-21T01:18:47.774Z,9.82
2023-10-21T01:23:05.188Z,7.53
2023-10-21T01:27:22.943Z,8.68
2023-10-21T01:31:40.455Z,7.43
2023-10-21T01:35:57.916Z,7.85
2023-10-21T01:40:15.534Z,11.95
2023-10-21T01:44:32.861Z,10.48
2023-10-21T01:48:51.887Z,10.68
2023-10-21T01:53:09.931Z,9.93
2023-10-21T01:57:29.894Z,12.73
2023-10-21T02:01:47.211Z,11.20
2023-10-21T02:06:08.037Z,11.85
2023-10-21T02:10:25.407Z,12.00
2023-10-21T02:14:42.797Z,10.15
2023-10-21T02:19:00.385Z,10.05
2023-10-21T02:23:17.697Z,10.65
2023-10-21T02:27:35.050Z,10.93
2023-10-21T02:31:52.406Z,10.95
2023-10-21T02:36:10.091Z,11.13
2023-10-21T02:40:27.443Z,15.02
2023-10-21T02:44:44.740Z,9.88
2023-10-21T02:49:02.220Z,9.85
2023-10-21T02:53:19.645Z,10.18
2023-10-21T02:57:37.180Z,10.20
2023-10-21T03:01:54.411Z,14.98
2023-10-21T03:06:13.686Z,13.30
2023-10-21T03:10:31.052Z,9.32
2023-10-21T03:14:48.446Z,10.55
2023-10-21T03:19:05.806Z,12.40
2023-10-21T03:23:23.257Z,9.23
2023-10-21T03:27:41.033Z,9.30
2023-10-21T03:31:58.389Z,6.68
2023-10-21T03:36:16.086Z,10.40
2023-10-21T03:40:34.497Z,2.60
2023-10-21T03:44:51.818Z,2.60
2023-10-21T03:49:09.331Z,2.15
2023-10-21T03:53:26.576Z,2.25
2023-10-21T03:57:44.124Z,1.80
2023-10-21T04:02:01.432Z,1.90
2023-10-21T04:06:20.248Z,1.80
2023-10-21T04:14:55.083Z,1.08
2023-10-21T04:19:12.591Z,1.20
2023-10-21T04:23:30.265Z,1.20
2023-10-21T04:27:48.195Z,1.20
2023-10-21T04:32:05.512Z,1.30
2023-10-21T04:36:22.808Z,1.40
2023-10-21T04:40:40.099Z,1.67
2023-10-21T04:45:00.520Z,1.08
2023-10-21T04:49:17.825Z,1.20
2023-10-21T04:53:35.466Z,1.33
2023-10-21T04:57:52.716Z,1.38
2023-10-21T05:02:10.517Z,1.23
2023-10-21T05:06:27.884Z,1.00
2023-10-21T05:10:48.264Z,1.17
2023-10-21T05:15:06.209Z,1.25
2023-10-21T05:19:24.226Z,1.10
2023-10-21T05:23:41.871Z,1.30
2023-10-21T05:27:59.196Z,1.00
2023-10-21T05:32:16.546Z,1.20
2023-10-21T05:36:34.206Z,0.80
2023-10-21T05:40:52.117Z,1.05
2023-10-21T05:45:09.808Z,1.00
2023-10-21T05:49:27.214Z,0.85
2023-10-21T05:53:44.642Z,1.00
2023-10-21T05:58:02.303Z,1.00
2023-10-21T06:02:19.948Z,0.98
2023-10-21T06:06:37.535Z,0.80
2023-10-21T06:10:55.632Z,1.10
2023-10-21T06:15:13.106Z,0.77
2023-10-21T06:19:30.499Z,1.02
2023-10-21T06:23:47.913Z,0.80
2023-10-21T06:28:05.527Z,1.00
2023-10-21T06:32:23.326Z,1.00
2023-10-21T06:36:40.674Z,0.88
2023-10-21T06:41:12.864Z,0.90
2023-10-21T06:45:31.679Z,0.70
2023-10-21T06:49:49.027Z,0.90
2023-10-21T06:54:09.786Z,1.02
2023-10-21T06:58:27.832Z,0.77
2023-10-21T07:02:45.772Z,0.60
2023-10-21T07:07:03.189Z,0.90
2023-10-21T07:11:21.780Z,0.60
2023-10-21T07:15:39.255Z,0.50
2023-10-21T07:19:57.095Z,0.30
2023-10-21T07:24:16.052Z,0.38
2023-10-21T07:28:35.035Z,0.60
2023-10-21T07:32:52.785Z,0.38
2023-10-21T07:37:10.285Z,0.40
2023-10-21T07:41:27.713Z,0.65
2023-10-21T07:45:45.500Z,0.55
2023-10-21T07:50:08.792Z,0.38
2023-10-21T07:54:26.881Z,0.50
2023-10-21T07:58:44.331Z,0.60
2023-10-21T08:03:02.259Z,0.55
2023-10-21T08:07:23.099Z,0.30
2023-10-21T08:11:40.526Z,0.50
2023-10-21T08:15:58.705Z,1.23
2023-10-21T08:20:15.994Z,0.70
2023-10-21T08:24:33.609Z,0.40
2023-10-21T08:28:50.948Z,0.40
2023-10-21T08:33:08.436Z,0.50
2023-10-21T08:37:25.761Z,1.63
2023-10-21T08:41:43.903Z,0.57
2023-10-21T08:46:01.423Z,0.43
2023-10-21T08:50:21.246Z,0.30
2023-10-21T08:54:42.365Z,0.30
2023-10-21T08:59:00.387Z,0.50
2023-10-21T09:03:18.039Z,0.30
2023-10-21T09:07:46.926Z,0.60
2023-10-21T09:12:04.868Z,0.40
2023-10-21T09:16:28.099Z,0.57
2023-10-21T09:20:49.458Z,0.40
2023-10-21T09:25:21.228Z,0.40
2023-10-21T09:29:39.456Z,0.30
2023-10-21T09:33:57.133Z,0.40
2023-10-21T09:38:19.169Z,0.52
2023-10-21T09:42:44.309Z,0.40
2023-10-21T09:47:09.400Z,0.30
2023-10-21T09:51:31.914Z,0.30
2023-10-21T09:55:49.728Z,0.40
2023-10-21T10:00:10.031Z,0.50
2023-10-21T10:04:28.944Z,0.30
2023-10-21T10:08:48.982Z,0.43
2023-10-21T10:13:10.407Z,0.32
2023-10-21T10:17:50.610Z,0.30
2023-10-21T10:22:22.505Z,0.63
2023-10-21T10:26:40.376Z,0.50
2023-10-21T10:30:58.536Z,0.38
2023-10-21T10:35:42.698Z,0.40
2023-10-21T10:40:07.170Z,0.50
2023-10-21T10:44:25.262Z,0.30
2023-10-21T10:48:43.974Z,0.45
2023-10-21T10:53:13.161Z,4.00
2023-10-21T10:57:31.478Z,0.80
2023-10-21T11:01:59.014Z,0.67
2023-10-21T11:06:19.563Z,0.40
2023-10-21T11:11:05.289Z,4.90
2023-10-21T11:15:25.558Z,0.50
2023-10-21T11:19:43.346Z,0.57
2023-10-21T11:24:03.332Z,3.13
2023-10-21T11:28:20.929Z,1.02
2023-10-21T11:32:39.013Z,0.80
2023-10-21T11:36:57.195Z,0.57
2023-10-21T11:41:15.649Z,0.50
2023-10-21T11:45:39.680Z,0.40
2023-10-21T11:50:22.372Z,0.45
2023-10-21T11:54:56.898Z,0.40
2023-10-21T11:59:16.349Z,0.40
2023-10-21T12:03:55.150Z,0.60
2023-10-21T12:08:35.394Z,0.88
2023-10-21T12:13:12.196Z,0.45
2023-10-21T12:18:05.447Z,0.50
2023-10-21T12:22:51.443Z,0.50
2023-10-21T12:27:16.714Z,0.57
2023-10-21T12:31:53.824Z,0.50
2023-10-21T12:36:32.160Z,0.40
2023-10-21T12:41:09.525Z,1.00
2023-10-21T12:45:36.138Z,0.55
2023-10-21T12:49:57.285Z,1.05
2023-10-21T12:54:16.729Z,0.30
2023-10-21T12:58:35.061Z,0.40
2023-10-21T13:02:53.542Z,0.40
2023-10-21T13:07:11.462Z,0.50
2023-10-21T13:11:28.988Z,0.40
2023-10-21T13:15:46.388Z,0.30
2023-10-21T13:20:06.103Z,0.30
2023-10-21T13:24:35.404Z,0.50
2023-10-21T13:33:11.705Z,0.50
2023-10-21T13:37:29.183Z,0.30
2023-10-21T13:41:47.953Z,0.65
2023-10-21T13:50:27.434Z,0.40
2023-10-21T13:54:46.643Z,0.30
2023-10-21T13:59:07.328Z,0.40
2023-10-21T14:03:26.496Z,0.32
2023-10-21T14:07:44.861Z,0.40
2023-10-21T14:12:02.397Z,0.40
2023-10-21T14:16:21.176Z,0.40
2023-10-21T14:20:43.084Z,0.30
2023-10-21T14:25:00.584Z,0.30
2023-10-21T14:29:18.668Z,0.40
2023-10-21T14:33:36.316Z,0.40
2023-10-21T14:37:54.462Z,0.50
2023-10-21T14:42:11.851Z,0.40
2023-10-21T14:46:29.176Z,0.60
2023-10-21T14:50:49.532Z,0.57
2023-10-21T14:55:07.664Z,1.30
2023-10-21T14:59:28.766Z,0.90
2023-10-21T15:03:46.593Z,0.60
2023-10-21T15:08:05.554Z,0.45
2023-10-21T15:12:23.486Z,0.40
2023-10-21T15:16:41.411Z,0.50
2023-10-21T15:21:06.961Z,0.47
2023-10-21T15:25:25.023Z,3.42
2023-10-21T15:29:42.345Z,1.83
2023-10-21T15:34:00.977Z,3.55
2023-10-21T15:38:18.552Z,3.20
2023-10-21T15:42:36.739Z,2.22
2023-10-21T15:46:57.890Z,1.48
2023-10-21T15:51:15.756Z,7.07
2023-10-21T15:55:33.234Z,5.35
2023-10-21T15:59:53.584Z,5.15
2023-10-21T16:04:11.495Z,7.22
2023-10-21T16:08:29.145Z,6.03
2023-10-21T16:12:50.559Z,24.77
2023-10-21T16:17:07.868Z,26.58
2023-10-21T16:21:25.649Z,38.30
2023-10-21T16:25:44.718Z,20.45
2023-10-21T16:30:02.285Z,18.67
2023-10-21T16:34:22.861Z,16.02
2023-10-21T16:38:40.639Z,6.95
2023-10-21T16:42:57.923Z,3.35
2023-10-21T16:47:15.776Z,2.45
2023-10-21T16:51:33.121Z,2.60
2023-10-21T16:55:50.535Z,2.75
2023-10-21T17:00:14.656Z,2.42
2023-10-21T17:04:32.716Z,4.18
2023-10-21T17:08:50.530Z,3.60
2023-10-21T17:13:09.288Z,3.22
2023-10-21T17:21:51.441Z,2.25
2023-10-21T17:26:08.965Z,1.80
2023-10-21T17:30:26.618Z,1.80
2023-10-21T17:34:44.984Z,1.63
2023-10-21T17:39:04.894Z,2.40
2023-10-21T17:43:22.415Z,1.98
2023-10-21T17:47:41.770Z,2.53
2023-10-21T17:52:01.875Z,3.00
2023-10-21T17:56:19.699Z,3.70
2023-10-21T18:00:39.188Z,3.60
2023-10-21T18:04:57.831Z,3.83
2023-10-21T18:09:30.944Z,5.10
2023-10-21T18:13:48.594Z,4.22
2023-10-21T18:18:06.006Z,3.88
2023-10-21T18:22:23.466Z,4.45
2023-10-21T18:26:41.524Z,5.38
2023-10-21T18:30:58.957Z,4.60
2023-10-21T18:35:16.921Z,5.90
2023-10-21T18:39:36.850Z,6.25
2023-10-21T18:43:55.577Z,8.70
2023-10-21T18:48:14.758Z,4.53
2023-10-21T18:52:32.454Z,6.60
2023-10-21T18:56:49.888Z,5.10
2023-10-21T19:01:07.414Z,3.47
2023-10-21T19:05:26.569Z,4.50
2023-10-21T19:09:44.222Z,6.40
2023-10-21T19:18:32.136Z,3.75
2023-10-21T19:22:49.732Z,5.65
2023-10-21T19:27:07.336Z,5.93
2023-10-21T19:31:26.651Z,7.45
2023-10-21T19:35:52.957Z,5.20
2023-10-21T19:40:10.982Z,6.90
2023-10-21T19:44:29.331Z,7.95
2023-10-21T19:48:46.745Z,6.65
2023-10-21T19:53:04.272Z,9.05
2023-10-21T19:57:29.433Z,6.47
2023-10-21T20:01:52.053Z,9.10
2023-10-21T20:06:16.154Z,14.60
2023-10-21T20:10:34.111Z,11.75
2023-10-21T20:14:56.551Z,6.72
2023-10-21T20:19:17.061Z,8.65
2023-10-21T20:23:39.984Z,6.85
2023-10-21T20:27:57.430Z,7.10
2023-10-21T20:32:14.885Z,6.88
2023-10-21T20:36:32.989Z,7.57
2023-10-21T20:40:54.222Z,5.63
2023-10-21T20:45:11.864Z,5.90
2023-10-21T20:49:29.274Z,5.28
2023-10-21T20:53:46.631Z,7.85
2023-10-21T20:58:06.064Z,9.70
2023-10-21T21:02:24.399Z,10.50
2023-10-21T21:06:43.260Z,16.30
2023-10-21T21:11:01.067Z,62.70
2023-10-21T21:15:19.529Z,16.02
2023-10-21T21:19:37.144Z,10.68
2023-10-21T21:23:54.546Z,8.05
2023-10-21T21:28:12.301Z,6.97
2023-10-21T21:32:31.181Z,5.80
2023-10-21T21:41:16.974Z,5.68
2023-10-21T21:45:39.199Z,7.20
2023-10-21T21:49:57.059Z,6.75
2023-10-21T21:54:16.469Z,7.22
2023-10-21T21:58:35.524Z,7.50
2023-10-21T22:02:53.466Z,10.38
2023-10-21T22:07:11.024Z,14.52
2023-10-21T22:11:28.896Z,8.98
2023-10-21T22:15:51.684Z,8.50
2023-10-21T22:20:22.852Z,9.50
2023-10-21T22:24:42.787Z,9.52
2023-10-21T22:29:05.600Z,6.40
2023-10-21T22:33:23.191Z,10.05
2023-10-21T22:37:40.570Z,9.75
2023-10-21T22:41:58.005Z,3.95
2023-10-21T22:46:15.624Z,2.13
2023-10-21T22:50:33.325Z,1.95
2023-10-21T22:54:50.714Z,1.30
2023-10-21T22:59:08.434Z,1.55
2023-10-21T23:03:25.855Z,1.70
2023-10-21T23:07:46.695Z,1.30
2023-10-21T23:12:04.268Z,1.48
2023-10-21T23:16:22.935Z,1.70
2023-10-21T23:20:45.341Z,1.40
2023-10-21T23:25:03.078Z,1.45
2023-10-21T23:29:21.029Z,1.38
2023-10-21T23:33:38.646Z,1.60
2023-10-21T23:37:56.188Z,1.55
2023-10-21T23:42:13.853Z,1.42
2023-10-21T23:46:33.818Z,1.50
2023-10-21T23:50:53.620Z,1.75
2023-10-21T23:55:15.074Z,1.70
2023-10-21T23:59:32.333Z,1.77
